Time;durP1;ratioP1;P1;durP2;ratioP2;P2;SDS_P1;SDS_P2;PMS_P1;PMS_P2;Temp;Humidity;BMP_temperature;BMP_pressure;BME280_temperature;BME280_humidity;BME280_pressure;Samples;Min_cycle;Max_cycle;Signal;HPM_P1;HPM_P2
2024/01/01 00:02:19;;;;;;;24.60;16.08;;;7.70;99.90;;;;;;5035472;28;20043;-53
2024/01/01 00:04:44;;;;;;;24.45;14.05;;;7.70;99.90;;;;;;5050659;28;20105;-55
2024/01/01 00:07:10;;;;;;;22.27;13.48;;;7.70;99.90;;;;;;5025784;28;20053;-51
2024/01/01 00:09:35;;;;;;;23.27;13.63;;;7.60;99.90;;;;;;5052352;28;20033;-52
2024/01/01 00:12:01;;;;;;;22.05;14.07;;;7.70;99.90;;;;;;5041709;28;20025;-53
2024/01/01 00:14:26;;;;;;;20.20;13.02;;;7.70;99.90;;;;;;5041994;28;20404;-51
2024/01/01 00:16:52;;;;;;;23.92;13.63;;;7.60;99.90;;;;;;5022593;28;20044;-51
2024/01/01 00:19:17;;;;;;;26.77;14.73;;;7.70;99.90;;;;;;5032834;28;20014;-49
2024/01/01 00:21:43;;;;;;;23.48;14.95;;;7.70;99.90;;;;;;5037823;28;20497;-55
2024/01/01 00:24:08;;;;;;;22.73;14.30;;;7.70;99.90;;;;;;5047920;28;20082;-54
2024/01/01 00:26:34;;;;;;;24.90;15.13;;;7.70;99.90;;;;;;5046516;28;20049;-51
2024/01/01 00:29:00;;;;;;;28.00;16.67;;;7.70;99.90;;;;;;5033245;28;20033;-50
2024/01/01 00:31:25;;;;;;;28.23;18.05;;;7.70;99.90;;;;;;5015408;28;20032;-50
2024/01/01 00:33:51;;;;;;;31.92;20.67;;;7.60;99.90;;;;;;5033489;28;20697;-51
2024/01/01 00:36:16;;;;;;;41.72;25.63;;;7.60;99.90;;;;;;5033847;28;20109;-51
2024/01/01 00:38:42;;;;;;;44.58;27.75;;;7.60;99.90;;;;;;5016026;28;20159;-53
2024/01/01 00:41:15;;;;;;;46.75;30.80;;;7.60;99.90;;;;;;5044493;28;20456;-51
2024/01/01 00:43:43;;;;;;;53.58;32.22;;;7.60;99.90;;;;;;5053045;28;20074;-54
2024/01/01 00:46:08;;;;;;;57.50;34.95;;;7.60;99.90;;;;;;5035391;28;20026;-55
2024/01/01 00:48:34;;;;;;;50.88;33.95;;;7.60;99.90;;;;;;5052748;28;20033;-51
2024/01/01 00:50:59;;;;;;;54.40;34.38;;;7.50;99.90;;;;;;5034342;28;20029;-51
2024/01/01 00:53:25;;;;;;;64.53;35.78;;;7.50;99.90;;;;;;5052594;28;20033;-51
2024/01/01 00:55:50;;;;;;;59.78;34.63;;;7.40;99.90;;;;;;5052804;28;20108;-54
2024/01/01 00:58:16;;;;;;;52.05;32.75;;;7.40;99.90;;;;;;5035177;28;20017;-48
2024/01/01 01:00:41;;;;;;;47.90;28.60;;;7.40;99.90;;;;;;5035201;28;20388;-50
2024/01/01 01:03:06;;;;;;;43.50;26.77;;;7.40;99.90;;;;;;5051965;28;20028;-50
2024/01/01 01:05:32;;;;;;;43.53;23.90;;;7.40;99.90;;;;;;5034658;28;20028;-52
2024/01/01 01:07:58;;;;;;;36.25;23.35;;;7.50;99.90;;;;;;5052989;28;20492;-49
2024/01/01 01:10:24;;;;;;;38.88;23.25;;;7.40;99.90;;;;;;5052683;28;20044;-48
2024/01/01 01:12:53;;;;;;;32.97;21.65;;;7.50;99.90;;;;;;5052248;28;20485;-49
2024/01/01 01:15:19;;;;;;;35.50;20.17;;;7.40;99.90;;;;;;5052260;28;20036;-49
2024/01/01 01:17:44;;;;;;;31.45;17.20;;;7.50;99.90;;;;;;5051942;28;20380;-50
2024/01/01 01:20:10;;;;;;;35.80;16.92;;;7.50;99.90;;;;;;5034282;28;20017;-52
2024/01/01 01:22:36;;;;;;;24.60;15.10;;;7.40;99.90;;;;;;5052066;28;20025;-53
2024/01/01 01:25:02;;;;;;;21.90;13.90;;;7.50;99.90;;;;;;5034113;28;20021;-52
2024/01/01 01:27:27;;;;;;;21.35;13.35;;;7.50;99.90;;;;;;5034301;28;20028;-54
2024/01/01 01:29:53;;;;;;;22.65;12.52;;;7.40;99.90;;;;;;5052101;28;20028;-52
2024/01/01 01:32:18;;;;;;;21.08;13.32;;;7.50;99.90;;;;;;5033838;28;20021;-52
2024/01/01 01:34:44;;;;;;;24.67;13.02;;;7.50;99.90;;;;;;5033932;28;20035;-53
2024/01/01 01:37:10;;;;;;;21.33;11.68;;;7.50;99.90;;;;;;5051904;28;20034;-51
2024/01/01 01:39:35;;;;;;;20.77;12.70;;;7.50;99.90;;;;;;5051934;28;20025;-51
2024/01/01 01:42:01;;;;;;;18.83;11.50;;;7.50;99.90;;;;;;5051832;28;20036;-53
2024/01/01 01:44:27;;;;;;;19.65;12.07;;;7.60;99.90;;;;;;5051687;28;20377;-52
2024/01/01 01:46:52;;;;;;;25.60;11.90;;;7.60;99.90;;;;;;5034335;28;20467;-49
2024/01/01 01:49:18;;;;;;;25.23;11.82;;;7.60;99.90;;;;;;5034544;28;20056;-52
2024/01/01 01:51:47;;;;;;;23.08;12.07;;;7.50;99.90;;;;;;5052348;28;20428;-54
2024/01/01 01:54:13;;;;;;;24.35;11.10;;;7.50;99.90;;;;;;5051009;28;20374;-52
2024/01/01 01:56:39;;;;;;;21.88;11.57;;;7.50;99.90;;;;;;5051508;28;20025;-52
2024/01/01 01:59:05;;;;;;;23.02;12.68;;;7.60;99.90;;;;;;5051526;28;20032;-48
2024/01/01 02:01:31;;;;;;;26.13;10.80;;;7.50;99.90;;;;;;5033795;28;20029;-50
2024/01/01 02:03:57;;;;;;;17.92;10.52;;;7.50;99.90;;;;;;5051092;28;20100;-48
2024/01/01 02:06:23;;;;;;;19.23;10.52;;;7.60;99.90;;;;;;5033811;28;20432;-48
2024/01/01 02:08:49;;;;;;;15.13;10.05;;;7.50;99.90;;;;;;5033587;28;20025;-51
2024/01/01 02:11:15;;;;;;;18.65;9.90;;;7.60;99.90;;;;;;5051465;28;20224;-46
2024/01/01 02:13:40;;;;;;;21.10;10.85;;;7.60;99.90;;;;;;5051372;28;20029;-52
2024/01/01 02:16:06;;;;;;;19.70;10.32;;;7.60;99.90;;;;;;5051518;28;20033;-51
2024/01/01 02:18:32;;;;;;;18.27;10.00;;;7.60;99.90;;;;;;5051400;28;20021;-49
2024/01/01 02:20:57;;;;;;;17.10;9.98;;;7.60;99.90;;;;;;5051500;28;20043;-55
2024/01/01 02:23:24;;;;;;;19.67;9.93;;;7.60;99.90;;;;;;5070284;23;20017;-40
2024/01/01 02:25:50;;;;;;;19.17;9.73;;;7.60;99.90;;;;;;5051007;28;20494;-45
2024/01/01 02:28:16;;;;;;;14.98;9.25;;;7.60;99.90;;;;;;5051616;28;20112;-46
2024/01/01 02:30:42;;;;;;;15.60;7.35;;;7.60;99.90;;;;;;5054333;28;20033;-45
2024/01/01 02:33:08;;;;;;;18.17;7.75;;;7.60;99.90;;;;;;5054818;28;20037;-44
2024/01/01 02:35:34;;;;;;;17.13;7.13;;;7.60;99.90;;;;;;5034160;28;20029;-44
2024/01/01 02:38:01;;;;;;;19.33;6.90;;;7.70;99.90;;;;;;5035436;28;20025;-50
2024/01/01 02:40:27;;;;;;;15.63;5.78;;;7.60;99.90;;;;;;5035400;28;20022;-47
2024/01/01 02:42:52;;;;;;;16.05;5.78;;;7.70;99.90;;;;;;5034638;28;20028;-47
2024/01/01 02:45:21;;;;;;;8.13;4.55;;;7.70;99.90;;;;;;5035195;28;20124;-42
2024/01/01 02:47:47;;;;;;;14.90;6.95;;;7.80;99.90;;;;;;5036461;28;20488;-44
2024/01/01 02:50:15;;;;;;;17.98;5.60;;;7.80;99.90;;;;;;5036595;28;20022;-44
2024/01/01 02:52:40;;;;;;;11.38;4.28;;;7.90;99.90;;;;;;5035225;28;20097;-50
2024/01/01 02:55:06;;;;;;;13.00;5.60;;;7.80;99.90;;;;;;5035082;28;20112;-46
2024/01/01 02:57:32;;;;;;;12.40;5.00;;;7.90;99.90;;;;;;5035272;28;20021;-44
2024/01/01 02:59:57;;;;;;;13.60;4.82;;;7.80;99.90;;;;;;5035177;28;20100;-47
2024/01/01 03:02:23;;;;;;;14.70;5.07;;;7.80;99.90;;;;;;5033528;28;20017;-44
2024/01/01 03:04:48;;;;;;;9.82;5.30;;;7.90;99.90;;;;;;5034920;28;20020;-49
2024/01/01 03:07:14;;;;;;;9.25;5.00;;;7.80;99.90;;;;;;5034782;28;20491;-44
2024/01/01 03:09:39;;;;;;;21.38;5.32;;;7.80;99.90;;;;;;5033659;28;20030;-45
2024/01/01 03:12:05;;;;;;;12.90;5.43;;;7.80;99.90;;;;;;5034958;28;20477;-43
2024/01/01 03:14:31;;;;;;;12.07;5.75;;;7.80;99.90;;;;;;5034594;28;20135;-49
2024/01/01 03:16:56;;;;;;;16.40;6.00;;;7.80;99.90;;;;;;5034647;28;20112;-45
2024/01/01 03:19:22;;;;;;;25.58;6.68;;;7.80;99.90;;;;;;5034742;28;20052;-40
2024/01/01 03:21:48;;;;;;;13.20;5.60;;;7.80;99.90;;;;;;5034517;28;20040;-45
2024/01/01 03:24:13;;;;;;;11.35;4.05;;;7.80;99.90;;;;;;5034335;28;20026;-44
2024/01/01 03:26:39;;;;;;;9.40;4.28;;;7.80;99.90;;;;;;5034729;28;20025;-45
2024/01/01 03:29:04;;;;;;;8.93;4.63;;;7.80;99.90;;;;;;5033205;28;20048;-44
2024/01/01 03:31:29;;;;;;;9.45;4.70;;;7.80;99.90;;;;;;5036943;28;20026;-46
2024/01/01 03:33:55;;;;;;;16.35;4.60;;;7.80;99.90;;;;;;5037599;28;20029;-45
2024/01/01 03:36:21;;;;;;;16.55;5.35;;;7.80;99.90;;;;;;5039992;28;20461;-47
2024/01/01 03:38:46;;;;;;;10.88;4.53;;;7.80;99.90;;;;;;5039899;28;20079;-48
2024/01/01 03:41:12;;;;;;;10.98;4.18;;;7.80;99.90;;;;;;5038603;28;20025;-49
2024/01/01 03:43:37;;;;;;;11.82;3.97;;;7.80;99.90;;;;;;5035492;28;20101;-46
2024/01/01 03:46:03;;;;;;;10.10;3.97;;;7.70;99.90;;;;;;5034256;28;20021;-46
2024/01/01 03:48:29;;;;;;;13.10;3.92;;;7.70;99.90;;;;;;5032878;28;20076;-49
2024/01/01 03:50:54;;;;;;;12.60;3.25;;;7.70;99.90;;;;;;5032829;28;20036;-46
2024/01/01 03:53:20;;;;;;;11.63;3.50;;;7.70;99.90;;;;;;5033865;28;20036;-43
2024/01/01 03:55:45;;;;;;;8.88;3.03;;;7.70;99.90;;;;;;5033807;28;20036;-47
2024/01/01 03:58:11;;;;;;;13.63;2.83;;;7.80;99.90;;;;;;5034200;28;20025;-44
2024/01/01 04:00:36;;;;;;;13.80;2.78;;;7.80;99.90;;;;;;5033846;28;20113;-48
2024/01/01 04:03:02;;;;;;;14.95;3.13;;;7.80;99.90;;;;;;5033577;28;20440;-44
2024/01/01 04:05:28;;;;;;;8.93;2.75;;;7.90;99.90;;;;;;5033924;28;20028;-48
2024/01/01 04:07:53;;;;;;;7.70;2.28;;;7.90;99.90;;;;;;5033740;28;20401;-41
2024/01/01 04:10:20;;;;;;;10.57;2.65;;;7.80;99.90;;;;;;5033937;28;20036;-41
2024/01/01 04:12:46;;;;;;;7.25;2.63;;;7.80;99.90;;;;;;5032559;28;20036;-41
2024/01/01 04:15:12;;;;;;;18.17;2.80;;;7.80;99.90;;;;;;5033911;28;20021;-48
2024/01/01 04:17:37;;;;;;;8.85;1.90;;;7.80;99.90;;;;;;5033586;28;20120;-46
2024/01/01 04:20:10;;;;;;;11.98;2.28;;;7.80;99.90;;;;;;5033484;28;20030;-47
2024/01/01 04:22:40;;;;;;;10.05;2.05;;;7.90;99.90;;;;;;5033324;28;20113;-47
2024/01/01 04:25:06;;;;;;;10.27;2.75;;;7.90;99.90;;;;;;5033422;28;20025;-48
2024/01/01 04:27:32;;;;;;;5.07;1.23;;;7.90;99.90;;;;;;5033365;28;20444;-41
2024/01/01 04:29:57;;;;;;;13.48;2.78;;;7.90;99.90;;;;;;5033407;28;20400;-45
2024/01/01 04:32:24;;;;;;;7.50;1.67;;;8.00;99.90;;;;;;5032946;28;20018;-43
2024/01/01 04:34:50;;;;;;;3.88;1.38;;;7.90;99.90;;;;;;5033122;28;20296;-43
2024/01/01 04:37:16;;;;;;;6.45;1.58;;;7.90;99.90;;;;;;5033122;28;20032;-48
2024/01/01 04:39:42;;;;;;;8.05;2.00;;;7.80;99.90;;;;;;5033229;28;20100;-47
2024/01/01 04:42:07;;;;;;;7.10;1.70;;;7.70;99.90;;;;;;5033150;28;20025;-42
2024/01/01 04:44:33;;;;;;;10.90;2.10;;;7.70;99.90;;;;;;5032942;28;20485;-46
2024/01/01 04:47:00;;;;;;;13.85;2.10;;;7.60;99.90;;;;;;5033147;28;20037;-45
2024/01/01 04:49:26;;;;;;;12.95;2.28;;;7.60;99.90;;;;;;5031683;28;20404;-46
2024/01/01 04:51:51;;;;;;;10.32;1.63;;;7.60;99.90;;;;;;5031909;28;20022;-47
2024/01/01 04:54:18;;;;;;;14.57;2.17;;;7.60;99.90;;;;;;5032717;28;20041;-45
2024/01/01 04:56:43;;;;;;;5.10;1.88;;;7.50;99.90;;;;;;5032860;28;20040;-47
2024/01/01 04:59:09;;;;;;;6.53;1.83;;;7.50;99.90;;;;;;5033454;28;20030;-44
2024/01/01 05:01:34;;;;;;;12.93;2.35;;;7.50;99.90;;;;;;5033066;28;20022;-48
2024/01/01 05:04:00;;;;;;;8.82;1.70;;;7.50;99.90;;;;;;5032218;28;20045;-45
2024/01/01 05:06:26;;;;;;;10.80;1.67;;;7.50;99.90;;;;;;5032632;28;20025;-46
2024/01/01 05:08:51;;;;;;;12.75;2.33;;;7.50;99.90;;;;;;5032780;28;20389;-44
2024/01/01 05:11:17;;;;;;;9.57;1.90;;;7.60;99.90;;;;;;5032616;28;20026;-44
2024/01/01 05:13:42;;;;;;;11.18;2.10;;;7.50;99.90;;;;;;5032396;28;20451;-44
2024/01/01 05:16:09;;;;;;;7.35;1.80;;;7.50;99.90;;;;;;5032496;28;20061;-44
2024/01/01 05:18:35;;;;;;;10.45;2.55;;;7.60;99.90;;;;;;5031130;28;20029;-45
2024/01/01 05:21:01;;;;;;;11.35;2.15;;;7.60;99.90;;;;;;5032589;28;20029;-46
2024/01/01 05:23:26;;;;;;;9.85;2.53;;;7.60;99.90;;;;;;5030957;28;20040;-46
2024/01/01 05:25:52;;;;;;;8.98;2.00;;;7.60;99.90;;;;;;5032379;28;20489;-50
2024/01/01 05:28:17;;;;;;;8.43;2.38;;;7.60;99.90;;;;;;5032324;28;20033;-45
2024/01/01 05:30:43;;;;;;;14.52;2.33;;;7.60;99.90;;;;;;5032081;28;20068;-46
2024/01/01 05:33:08;;;;;;;8.43;1.63;;;7.90;99.90;;;;;;5030544;28;20116;-49
2024/01/01 05:35:34;;;;;;;7.65;2.10;;;7.70;99.90;;;;;;5032159;28;20030;-47
2024/01/01 05:38:00;;;;;;;8.73;1.50;;;7.80;99.90;;;;;;5030904;28;20021;-47
2024/01/01 05:40:25;;;;;;;3.58;1.98;;;7.70;99.90;;;;;;5032060;28;20075;-47
2024/01/01 05:42:51;;;;;;;11.73;1.17;;;7.80;99.90;;;;;;5030487;28;20025;-47
2024/01/01 05:45:16;;;;;;;9.10;1.42;;;7.70;99.90;;;;;;5030675;28;20109;-42
2024/01/01 05:47:42;;;;;;;1.95;1.00;;;7.60;99.90;;;;;;5031772;28;20034;-44
2024/01/01 05:50:07;;;;;;;1.55;0.80;;;7.50;99.90;;;;;;5031816;28;20033;-46
2024/01/01 05:52:33;;;;;;;3.08;1.00;;;7.50;99.90;;;;;;5031613;28;20068;-48
2024/01/01 05:54:58;;;;;;;2.72;0.95;;;7.40;99.90;;;;;;5031815;28;20412;-44
2024/01/01 05:57:24;;;;;;;6.18;1.05;;;7.40;99.90;;;;;;5031778;28;20075;-41
2024/01/01 05:59:49;;;;;;;5.18;1.73;;;7.40;99.90;;;;;;5031738;28;20525;-48
2024/01/01 06:02:15;;;;;;;1.95;0.90;;;7.30;99.90;;;;;;5031176;28;20485;-46
2024/01/01 06:04:40;;;;;;;7.10;1.10;;;7.40;99.90;;;;;;5031448;28;20025;-44
2024/01/01 06:07:06;;;;;;;7.60;1.33;;;7.40;99.90;;;;;;5031649;28;20032;-46
2024/01/01 06:09:34;;;;;;;3.33;1.20;;;7.40;99.90;;;;;;5031569;28;20105;-47
2024/01/01 06:12:00;;;;;;;4.57;1.08;;;7.40;99.90;;;;;;5031542;28;20017;-44
2024/01/01 06:14:25;;;;;;;4.80;1.10;;;7.40;99.90;;;;;;5031285;28;20036;-42
2024/01/01 06:16:50;;;;;;;6.63;1.70;;;7.40;99.90;;;;;;5031327;28;20428;-44
2024/01/01 06:19:16;;;;;;;5.50;1.73;;;7.40;99.90;;;;;;5031386;28;20104;-47
2024/01/01 06:21:41;;;;;;;6.80;1.90;;;7.40;99.90;;;;;;5031400;28;20416;-46
2024/01/01 06:24:07;;;;;;;9.57;2.08;;;7.40;99.90;;;;;;5031112;28;20040;-46
2024/01/01 06:26:32;;;;;;;8.95;1.55;;;7.40;99.90;;;;;;5031529;28;20060;-44
2024/01/01 06:28:59;;;;;;;6.40;1.95;;;7.40;99.90;;;;;;5031473;28;20417;-44
2024/01/01 06:31:24;;;;;;;5.57;1.88;;;7.30;99.90;;;;;;5031242;28;20042;-44
2024/01/01 06:33:50;;;;;;;6.10;1.73;;;7.30;99.90;;;;;;5031094;28;20034;-44
2024/01/01 06:36:15;;;;;;;5.55;2.10;;;7.30;99.90;;;;;;5031849;28;20030;-45
2024/01/01 06:38:41;;;;;;;4.57;1.60;;;7.30;99.90;;;;;;5031890;28;20021;-49
2024/01/01 06:41:07;;;;;;;4.97;1.80;;;7.30;99.90;;;;;;5032057;28;20021;-44
2024/01/01 06:43:33;;;;;;;8.40;1.80;;;7.30;99.90;;;;;;5031605;28;20017;-47
2024/01/01 06:45:59;;;;;;;10.38;2.65;;;7.30;99.90;;;;;;5031168;28;20025;-49
2024/01/01 06:48:25;;;;;;;6.72;1.77;;;7.20;99.90;;;;;;5031372;28;20031;-44
2024/01/01 06:50:51;;;;;;;7.60;1.50;;;7.20;99.90;;;;;;5031556;28;20031;-45
2024/01/01 06:53:16;;;;;;;9.02;1.70;;;7.20;99.90;;;;;;5031018;28;20060;-44
2024/01/01 06:55:42;;;;;;;7.47;1.60;;;7.10;99.90;;;;;;5031391;28;20064;-45
2024/01/01 06:58:07;;;;;;;5.15;2.15;;;7.00;99.90;;;;;;5030065;28;20033;-47
2024/01/01 07:00:33;;;;;;;9.35;2.58;;;7.00;99.90;;;;;;5031524;28;20416;-44
2024/01/01 07:02:59;;;;;;;4.38;1.75;;;7.00;99.90;;;;;;5031104;28;20057;-47
2024/01/01 07:05:26;;;;;;;8.00;2.70;;;7.00;99.90;;;;;;5031339;28;20026;-42
2024/01/01 07:07:51;;;;;;;7.88;2.90;;;6.90;99.90;;;;;;5031220;28;20595;-45
2024/01/01 07:10:17;;;;;;;7.38;2.33;;;6.90;99.90;;;;;;5029929;28;20090;-43
2024/01/01 07:12:42;;;;;;;8.15;2.10;;;6.90;99.90;;;;;;5030776;28;20552;-45
2024/01/01 07:15:08;;;;;;;19.35;4.07;;;6.90;99.90;;;;;;5032017;28;20412;-48
2024/01/01 07:17:34;;;;;;;9.00;1.50;;;6.90;99.90;;;;;;5034934;28;20025;-46
2024/01/01 07:20:00;;;;;;;5.57;1.88;;;6.90;99.90;;;;;;5034909;28;20052;-45
2024/01/01 07:22:25;;;;;;;9.77;2.28;;;6.90;99.90;;;;;;5033278;28;20017;-45
2024/01/01 07:24:51;;;;;;;7.15;2.53;;;6.90;99.90;;;;;;5034837;28;20037;-44
2024/01/01 07:27:16;;;;;;;7.55;1.95;;;6.90;99.90;;;;;;5035133;28;20019;-44
2024/01/01 07:29:42;;;;;;;9.15;1.50;;;6.90;99.90;;;;;;5043320;28;20059;-48
2024/01/01 07:32:08;;;;;;;6.05;1.50;;;6.90;99.90;;;;;;5034374;28;20021;-41
2024/01/01 07:34:33;;;;;;;9.35;1.90;;;6.90;99.90;;;;;;5034148;28;20022;-45
2024/01/01 07:37:00;;;;;;;4.38;1.55;;;6.90;99.90;;;;;;5033225;28;20033;-46
2024/01/01 07:39:29;;;;;;;8.52;1.20;;;6.90;99.90;;;;;;5034327;28;20442;-47
2024/01/01 07:41:55;;;;;;;10.20;2.03;;;6.90;99.90;;;;;;5034296;28;20025;-52
2024/01/01 07:44:21;;;;;;;8.32;1.48;;;6.90;99.90;;;;;;5033873;28;20025;-45
2024/01/01 07:46:49;;;;;;;9.45;2.65;;;6.90;99.90;;;;;;5034264;28;20048;-50
2024/01/01 07:49:15;;;;;;;15.57;2.45;;;6.90;99.90;;;;;;5034704;28;20385;-46
2024/01/01 07:51:41;;;;;;;10.05;1.92;;;7.00;99.90;;;;;;5034064;28;20477;-46
2024/01/01 07:54:06;;;;;;;9.25;1.83;;;7.00;99.90;;;;;;5033835;28;20025;-48
2024/01/01 07:56:32;;;;;;;8.85;2.10;;;7.00;99.90;;;;;;5032721;28;20063;-47
2024/01/01 07:58:58;;;;;;;14.05;2.53;;;7.10;99.90;;;;;;5033876;28;20022;-48
2024/01/01 08:01:24;;;;;;;10.57;2.78;;;7.10;99.90;;;;;;5033890;28;20021;-48
2024/01/01 08:03:50;;;;;;;8.35;2.03;;;7.10;99.90;;;;;;5033275;28;20022;-49
2024/01/01 08:06:17;;;;;;;7.53;1.88;;;7.10;99.90;;;;;;5033758;28;20045;-43
2024/01/01 08:08:43;;;;;;;7.53;2.08;;;7.10;99.90;;;;;;5033714;28;20108;-46
2024/01/01 08:11:08;;;;;;;4.03;1.48;;;7.10;99.90;;;;;;5033487;28;20109;-44
2024/01/01 08:13:36;;;;;;;9.60;2.40;;;7.20;99.90;;;;;;5033442;28;20033;-49
2024/01/01 08:16:02;;;;;;;5.72;2.60;;;7.20;99.90;;;;;;5032356;28;20370;-46
2024/01/01 08:18:27;;;;;;;14.32;3.00;;;7.20;99.90;;;;;;5033561;28;20028;-47
2024/01/01 08:20:53;;;;;;;13.20;3.03;;;7.20;99.90;;;;;;5033464;28;20029;-41
2024/01/01 08:23:19;;;;;;;17.15;2.78;;;7.30;99.90;;;;;;5032992;28;20435;-44
2024/01/01 08:25:44;;;;;;;8.63;2.42;;;7.30;99.90;;;;;;5054537;23;20045;-54
2024/01/01 08:28:10;;;;;;;17.25;3.67;;;7.30;99.90;;;;;;5034193;28;20314;-50
2024/01/01 08:30:35;;;;;;;17.17;3.03;;;7.20;99.90;;;;;;5034804;28;20017;-48
2024/01/01 08:33:01;;;;;;;15.50;3.70;;;7.20;99.90;;;;;;5033975;28;20022;-50
2024/01/01 08:35:26;;;;;;;13.35;1.98;;;7.30;99.90;;;;;;5033959;28;20091;-46
2024/01/01 08:37:52;;;;;;;12.77;3.50;;;7.30;99.90;;;;;;5034355;28;20033;-48
2024/01/01 08:40:18;;;;;;;19.25;2.55;;;7.40;99.90;;;;;;5034423;28;20489;-48
2024/01/01 08:42:43;;;;;;;15.18;3.33;;;7.40;99.90;;;;;;5033656;28;20396;-48
2024/01/01 08:45:09;;;;;;;9.35;2.75;;;7.50;99.90;;;;;;5034816;28;20108;-47
2024/01/01 08:47:35;;;;;;;14.57;2.15;;;7.50;99.90;;;;;;5033697;28;20567;-46
2024/01/01 08:50:01;;;;;;;9.40;2.40;;;7.60;99.90;;;;;;5034131;28;20705;-45
2024/01/01 08:52:26;;;;;;;13.18;3.33;;;7.60;99.90;;;;;;5015780;28;20056;-47
2024/01/01 08:54:52;;;;;;;12.23;2.05;;;7.70;99.90;;;;;;5034992;28;20033;-47
2024/01/01 08:57:18;;;;;;;8.30;2.10;;;7.60;99.90;;;;;;5041807;28;20025;-49
2024/01/01 08:59:43;;;;;;;6.95;1.60;;;7.60;99.90;;;;;;5033354;28;20022;-48
2024/01/01 09:02:09;;;;;;;7.47;1.83;;;7.70;99.90;;;;;;5033295;28;20033;-46
2024/01/01 09:04:35;;;;;;;7.32;1.92;;;7.80;99.90;;;;;;5033070;28;20511;-50
2024/01/01 09:07:02;;;;;;;8.80;1.73;;;7.90;99.90;;;;;;5032527;28;20037;-50
2024/01/01 09:09:28;;;;;;;4.10;1.70;;;7.90;99.90;;;;;;5033229;28;20013;-46
2024/01/01 09:11:53;;;;;;;2.42;1.08;;;7.90;99.90;;;;;;5033135;28;20026;-48
2024/01/01 09:14:19;;;;;;;1.65;0.95;;;8.00;99.90;;;;;;5032802;28;20088;-47
2024/01/01 09:16:46;;;;;;;2.40;0.75;;;8.20;99.90;;;;;;5014981;28;20485;-49
2024/01/01 09:19:11;;;;;;;2.38;0.60;;;8.40;99.90;;;;;;5033271;28;20033;-46
2024/01/01 09:21:38;;;;;;;2.70;1.05;;;8.60;99.90;;;;;;5014891;28;20017;-47
2024/01/01 09:24:05;;;;;;;5.25;0.90;;;8.90;99.90;;;;;;5032554;28;20021;-50
2024/01/01 09:26:31;;;;;;;4.28;1.02;;;9.20;99.90;;;;;;5015085;28;20120;-49
2024/01/01 09:28:57;;;;;;;5.88;1.30;;;9.40;99.90;;;;;;5033183;28;20063;-49
2024/01/01 09:31:23;;;;;;;9.05;1.70;;;9.60;99.90;;;;;;5032483;28;20109;-47
2024/01/01 09:33:48;;;;;;;3.47;1.40;;;9.70;99.90;;;;;;5032757;28;20030;-48
2024/01/01 09:36:14;;;;;;;6.60;1.63;;;9.60;99.90;;;;;;5032902;28;20111;-48
2024/01/01 09:38:41;;;;;;;7.20;1.60;;;9.40;99.90;;;;;;5014407;28;20027;-51
2024/01/01 09:41:10;;;;;;;7.72;1.55;;;9.10;99.90;;;;;;5033113;28;20052;-47
2024/01/01 09:43:35;;;;;;;4.70;1.25;;;8.90;99.90;;;;;;5032244;28;20115;-46
2024/01/01 09:46:01;;;;;;;6.53;1.92;;;8.50;99.90;;;;;;5032237;28;20068;-45
2024/01/01 09:48:26;;;;;;;9.68;1.88;;;8.30;99.90;;;;;;5032485;28;20033;-48
2024/01/01 09:50:52;;;;;;;5.20;1.95;;;8.20;99.90;;;;;;5014444;28;20025;-45
2024/01/01 09:53:18;;;;;;;9.02;1.63;;;8.10;99.90;;;;;;5014185;28;20036;-48
2024/01/01 09:55:54;;;;;;;7.18;1.83;;;8.10;99.90;;;;;;5032396;28;20033;-47
2024/01/01 09:58:20;;;;;;;11.85;3.45;;;8.10;99.90;;;;;;5032080;28;20087;-49
2024/01/01 10:00:47;;;;;;;15.60;2.35;;;8.10;99.90;;;;;;5032047;28;20021;-50
2024/01/01 10:03:14;;;;;;;9.10;2.03;;;8.00;99.90;;;;;;5031787;28;20021;-47
2024/01/01 10:05:40;;;;;;;7.75;2.65;;;8.00;99.90;;;;;;5014399;28;20033;-46
2024/01/01 10:08:13;;;;;;;8.93;1.88;;;8.00;99.90;;;;;;5032178;28;20022;-47
2024/01/01 10:10:40;;;;;;;9.77;2.20;;;8.00;99.90;;;;;;5032084;28;20061;-50
2024/01/01 10:13:10;;;;;;;6.90;1.77;;;8.10;99.90;;;;;;5031610;28;20104;-46
2024/01/01 10:15:40;;;;;;;10.38;1.95;;;8.00;99.90;;;;;;5031671;28;20109;-48
2024/01/01 10:18:10;;;;;;;7.18;2.22;;;8.00;99.90;;;;;;5031741;28;20481;-46
2024/01/01 10:20:37;;;;;;;6.22;1.63;;;8.10;99.90;;;;;;5031997;28;20366;-47
2024/01/01 10:23:25;;;;;;;17.58;3.05;;;8.10;99.90;;;;;;5032017;28;20013;-49
2024/01/01 10:26:04;;;;;;;14.27;2.75;;;8.20;99.90;;;;;;5031849;28;20045;-48
2024/01/01 10:28:31;;;;;;;14.20;2.78;;;8.20;99.90;;;;;;5033372;28;20056;-47
2024/01/01 10:30:58;;;;;;;7.57;2.13;;;8.30;99.90;;;;;;5024749;28;20037;-48
2024/01/01 10:33:25;;;;;;;9.60;2.58;;;8.30;99.90;;;;;;5014079;28;20025;-47
2024/01/01 10:35:52;;;;;;;10.07;2.33;;;8.30;99.90;;;;;;5031630;28;20064;-51
2024/01/01 10:38:19;;;;;;;10.52;2.47;;;8.40;99.90;;;;;;5033082;28;20026;-48
2024/01/01 10:40:46;;;;;;;12.38;2.60;;;8.40;99.90;;;;;;5032838;28;20520;-49
2024/01/01 10:43:13;;;;;;;11.15;2.55;;;8.40;99.90;;;;;;5013680;28;20464;-46
2024/01/01 10:45:39;;;;;;;11.13;3.47;;;8.50;99.90;;;;;;5031465;28;20067;-47
2024/01/01 10:48:06;;;;;;;17.63;2.78;;;8.50;99.90;;;;;;5031646;28;20493;-49
2024/01/01 10:50:35;;;;;;;6.82;1.73;;;8.50;99.90;;;;;;5032873;28;20038;-50
2024/01/01 10:53:33;;;;;;;10.65;2.75;;;8.50;99.90;;;;;;5047712;28;20508;-49
2024/01/01 10:56:25;;;;;;;11.32;3.08;;;8.60;99.90;;;;;;5054967;28;20492;-45
2024/01/01 10:59:02;;;;;;;13.68;2.90;;;8.60;99.90;;;;;;5051726;28;20024;-46
2024/01/01 11:01:29;;;;;;;18.15;3.08;;;8.70;99.90;;;;;;5015229;28;20025;-50
2024/01/01 11:03:55;;;;;;;16.60;3.10;;;8.60;99.90;;;;;;5015094;28;20440;-48
2024/01/01 11:06:29;;;;;;;24.02;2.65;;;8.70;99.90;;;;;;5001466;28;20075;-50
2024/01/01 11:08:56;;;;;;;11.57;2.40;;;8.70;99.90;;;;;;5035110;28;20084;-45
2024/01/01 11:11:27;;;;;;;11.80;2.80;;;8.80;99.90;;;;;;5035843;28;20041;-48
2024/01/01 11:13:54;;;;;;;17.00;3.10;;;8.80;99.90;;;;;;5034774;28;20056;-50
2024/01/01 11:16:21;;;;;;;15.40;2.13;;;8.90;99.90;;;;;;5034815;28;20717;-49
2024/01/01 11:18:47;;;;;;;14.20;2.80;;;9.00;99.90;;;;;;5017139;28;20029;-48
2024/01/01 11:21:30;;;;;;;13.07;2.40;;;9.10;99.90;;;;;;5034723;28;20477;-51
2024/01/01 11:23:59;;;;;;;17.13;2.72;;;9.00;99.90;;;;;;5035000;28;20555;-47
2024/01/01 11:26:32;;;;;;;10.02;2.22;;;9.00;99.90;;;;;;5023987;28;20041;-49
2024/01/01 11:29:05;;;;;;;8.15;2.47;;;9.00;99.90;;;;;;5034542;28;20480;-49
2024/01/01 11:31:31;;;;;;;20.63;3.47;;;9.10;99.90;;;;;;5034329;28;20044;-50
2024/01/01 11:34:06;;;;;;;12.95;3.35;;;9.10;99.90;;;;;;5016517;28;20025;-46
2024/01/01 11:36:33;;;;;;;10.82;2.03;;;9.00;99.90;;;;;;5034517;28;20103;-48
2024/01/01 11:39:01;;;;;;;9.85;2.50;;;9.00;99.90;;;;;;5035070;28;20026;-46
2024/01/01 11:41:28;;;;;;;6.63;1.92;;;9.00;99.90;;;;;;5033667;28;20119;-48
2024/01/01 11:43:53;;;;;;;5.25;1.92;;;9.10;99.90;;;;;;5033918;28;20535;-47
2024/01/01 11:46:23;;;;;;;8.10;2.00;;;9.10;99.90;;;;;;5034496;28;20033;-47
2024/01/01 11:48:59;;;;;;;10.15;3.08;;;9.10;99.90;;;;;;5034544;28;20083;-50
2024/01/01 11:51:26;;;;;;;8.70;2.40;;;9.10;99.90;;;;;;5016332;28;20029;-49
2024/01/01 11:54:09;;;;;;;12.15;2.72;;;9.10;99.90;;;;;;5016674;28;20030;-49
2024/01/01 11:56:37;;;;;;;7.68;2.35;;;9.10;99.90;;;;;;5033917;28;20029;-46
2024/01/01 11:59:04;;;;;;;7.13;1.67;;;9.00;99.90;;;;;;5034343;28;20021;-51
2024/01/01 12:01:30;;;;;;;7.93;2.15;;;9.00;99.90;;;;;;5033387;28;20515;-54
2024/01/01 12:03:59;;;;;;;13.13;2.10;;;9.00;99.90;;;;;;5034531;28;20037;-46
2024/01/01 12:06:25;;;;;;;7.70;1.70;;;9.00;99.90;;;;;;5033551;28;20124;-49
2024/01/01 12:09:20;;;;;;;15.60;2.40;;;8.90;99.90;;;;;;5034055;28;20065;-48
2024/01/01 12:11:46;;;;;;;10.95;2.10;;;8.90;99.90;;;;;;5013861;28;20045;-46
2024/01/01 12:14:13;;;;;;;7.03;2.15;;;8.90;99.90;;;;;;4996931;28;20029;-50
2024/01/01 12:16:40;;;;;;;7.78;2.15;;;9.00;99.90;;;;;;4996508;28;20449;-51
2024/01/01 12:19:09;;;;;;;5.50;1.77;;;9.00;99.90;;;;;;5014184;28;20022;-50
2024/01/01 12:21:42;;;;;;;8.82;2.20;;;9.00;99.90;;;;;;5017494;28;20025;-47
2024/01/01 12:24:11;;;;;;;10.23;2.60;;;9.10;99.90;;;;;;5017323;28;20056;-49
2024/01/01 12:26:37;;;;;;;8.23;1.65;;;9.00;99.90;;;;;;5016881;28;20404;-49
2024/01/01 12:29:08;;;;;;;12.68;1.98;;;8.90;99.90;;;;;;5036402;28;20313;-49
2024/01/01 12:31:35;;;;;;;6.40;2.20;;;9.00;99.90;;;;;;5036467;28;20025;-50
2024/01/01 12:34:00;;;;;;;6.25;2.30;;;9.00;99.90;;;;;;5033605;28;20018;-49
2024/01/01 12:36:26;;;;;;;14.25;2.22;;;9.00;99.90;;;;;;5015486;28;20025;-50
2024/01/01 12:38:51;;;;;;;7.60;2.10;;;9.00;99.90;;;;;;5049297;28;20032;-51
2024/01/01 12:41:18;;;;;;;9.43;1.75;;;9.00;99.90;;;;;;5052923;28;20488;-49
2024/01/01 12:43:43;;;;;;;4.43;1.70;;;9.00;99.90;;;;;;5053152;28;20198;-51
2024/01/01 12:46:12;;;;;;;7.75;2.22;;;9.00;99.90;;;;;;5050333;28;20032;-52
2024/01/01 12:48:37;;;;;;;10.27;1.70;;;9.10;99.90;;;;;;5033224;28;20026;-49